Time;durP1;ratioP1;P1;durP2;ratioP2;P2;SDS_P1;SDS_P2;PMS_P1;PMS_P2;Temp;Humidity;BMP_temperature;BMP_pressure;BME280_temperature;BME280_humidity;BME280_pressure;Samples;Min_cycle;Max_cycle;Signal;HPM_P1;HPM_P2
2023/01/30 00:01:18;;;;;;;24.05;13.43;;;6.60;99.90;;;;;;5045436;28;20625;-83
2023/01/30 00:03:44;;;;;;;23.08;13.02;;;6.40;99.90;;;;;;5050239;28;20037;-83
2023/01/30 00:06:10;;;;;;;28.90;14.10;;;6.40;99.90;;;;;;5028974;28;20044;-83
2023/01/30 00:08:36;;;;;;;28.52;12.23;;;6.40;99.90;;;;;;5043747;28;20053;-83
2023/01/30 00:11:08;;;;;;;22.63;13.43;;;6.50;99.90;;;;;;5044247;28;20585;-84
2023/01/30 00:13:33;;;;;;;25.67;13.18;;;6.50;99.90;;;;;;5041625;28;20558;-83
2023/01/30 00:15:59;;;;;;;22.02;13.65;;;6.70;99.90;;;;;;5045450;28;20151;-84
2023/01/30 00:18:25;;;;;;;27.13;12.40;;;6.50;99.90;;;;;;5044307;28;20124;-84
2023/01/30 00:21:02;;;;;;;24.70;12.40;;;6.50;99.90;;;;;;5041736;28;20041;-84
2023/01/30 00:23:29;;;;;;;22.80;12.27;;;6.50;99.90;;;;;;5063295;28;20119;-84
2023/01/30 00:25:54;;;;;;;24.60;11.75;;;6.60;99.90;;;;;;5049482;28;20518;-84
2023/01/30 00:28:21;;;;;;;26.13;11.70;;;6.60;99.90;;;;;;5047764;28;20037;-84
2023/01/30 00:30:54;;;;;;;21.00;10.10;;;6.60;99.90;;;;;;5029216;28;20037;-84
2023/01/30 00:33:22;;;;;;;23.20;10.67;;;6.60;99.90;;;;;;5048748;28;20037;-84
2023/01/30 00:35:50;;;;;;;20.98;10.80;;;6.70;99.90;;;;;;5039482;28;20044;-84
2023/01/30 00:38:16;;;;;;;22.98;11.55;;;6.70;99.90;;;;;;5042981;28;20036;-84
2023/01/30 00:40:42;;;;;;;20.08;10.80;;;6.70;99.90;;;;;;5042808;28;20045;-84
2023/01/30 00:48:42;;;;;;;22.50;10.52;;;6.70;99.90;;;;;;5039016;28;20048;-84
2023/01/30 00:51:07;;;;;;;21.85;10.93;;;6.70;99.90;;;;;;5044994;28;20044;-84
2023/01/30 00:53:33;;;;;;;24.27;9.90;;;6.80;99.90;;;;;;5040084;28;20084;-84
2023/01/30 00:55:59;;;;;;;18.15;9.52;;;6.80;99.90;;;;;;5036757;28;20129;-84
2023/01/30 00:58:24;;;;;;;20.27;10.23;;;6.80;99.90;;;;;;5048895;28;20064;-83
2023/01/30 01:00:50;;;;;;;20.92;10.75;;;6.80;99.90;;;;;;5043760;28;20044;-84
2023/01/30 01:03:16;;;;;;;26.08;11.32;;;6.80;99.90;;;;;;5039041;28;20144;-83
2023/01/30 01:05:42;;;;;;;23.83;10.93;;;6.70;99.90;;;;;;5048068;28;20033;-84
2023/01/30 01:08:09;;;;;;;22.85;11.00;;;6.70;99.90;;;;;;5048159;28;20043;-84
2023/01/30 01:10:35;;;;;;;22.73;11.10;;;6.70;99.90;;;;;;5050112;28;20053;-85
2023/01/30 01:13:00;;;;;;;24.13;11.13;;;6.70;99.90;;;;;;5052405;28;20041;-85
2023/01/30 01:15:26;;;;;;;23.15;9.73;;;6.60;99.90;;;;;;5048546;28;20045;-85
2023/01/30 01:17:53;;;;;;;23.80;10.65;;;6.60;99.90;;;;;;5048929;28;20089;-84
2023/01/30 01:20:19;;;;;;;19.10;9.45;;;6.60;99.90;;;;;;5048401;28;20100;-85
2023/01/30 01:22:48;;;;;;;22.77;10.07;;;6.60;99.90;;;;;;5040393;28;20051;-85
2023/01/30 01:25:14;;;;;;;22.00;9.63;;;6.60;99.90;;;;;;5047061;28;20076;-85
2023/01/30 01:27:39;;;;;;;22.13;9.52;;;6.50;99.90;;;;;;5051603;28;20158;-85
2023/01/30 01:30:06;;;;;;;19.15;8.68;;;6.50;99.90;;;;;;5050553;28;20036;-85
2023/01/30 01:32:32;;;;;;;19.25;8.77;;;6.50;99.90;;;;;;5043461;28;20041;-85
2023/01/30 01:34:57;;;;;;;21.27;7.57;;;6.70;99.90;;;;;;5050649;28;20037;-85
2023/01/30 01:37:23;;;;;;;15.93;7.70;;;6.80;99.90;;;;;;5048373;28;20101;-85
2023/01/30 01:42:36;;;;;;;14.27;7.18;;;6.50;99.90;;;;;;5041757;28;20049;-86
2023/01/30 01:45:13;;;;;;;15.30;6.45;;;6.50;99.90;;;;;;5052212;28;20039;-85
2023/01/30 01:47:57;;;;;;;15.80;6.07;;;6.50;99.90;;;;;;5050787;28;20052;-86
2023/01/30 01:50:31;;;;;;;;;;;6.50;99.90;;;;;;5034769;28;20051;-86
2023/01/30 01:52:59;;;;;;;12.65;5.55;;;6.50;99.90;;;;;;5047613;28;20345;-86
2023/01/30 01:55:26;;;;;;;11.90;5.25;;;6.60;99.90;;;;;;5049810;28;20045;-85
2023/01/30 01:58:01;;;;;;;16.45;5.68;;;6.60;99.90;;;;;;5046695;28;20566;-86
2023/01/30 02:00:27;;;;;;;12.00;5.00;;;6.60;99.90;;;;;;5046956;28;20133;-86
2023/01/30 02:03:03;;;;;;;12.50;5.03;;;6.60;99.90;;;;;;5044925;28;20120;-85
2023/01/30 02:05:33;;;;;;;14.40;5.28;;;6.60;99.90;;;;;;5052879;28;20037;-86
2023/01/30 02:08:06;;;;;;;10.63;4.90;;;6.60;99.90;;;;;;5046445;28;20128;-86
2023/01/30 02:11:08;;;;;;;14.18;5.68;;;6.70;99.90;;;;;;5048008;28;20037;-86
2023/01/30 02:13:34;;;;;;;14.40;5.60;;;6.70;99.90;;;;;;5052062;28;20549;-87
2023/01/30 02:16:01;;;;;;;16.10;5.90;;;6.70;99.90;;;;;;5049209;28;20040;-86
2023/01/30 02:18:33;;;;;;;28.35;7.00;;;6.70;99.90;;;;;;5049745;28;20098;-86
2023/01/30 02:21:09;;;;;;;12.27;5.38;;;6.70;99.90;;;;;;5042136;28;20140;-86
2023/01/30 02:24:04;;;;;;;12.73;5.18;;;6.70;99.90;;;;;;5049475;28;20045;-86
2023/01/30 02:26:47;;;;;;;17.48;5.43;;;6.80;99.90;;;;;;5058392;28;20049;-86
2023/01/30 02:29:28;;;;;;;11.77;5.25;;;6.80;99.90;;;;;;5050332;28;20048;-86
2023/01/30 02:31:57;;;;;;;13.65;5.50;;;6.90;99.90;;;;;;5058554;28;20045;-87
2023/01/30 02:34:34;;;;;;;10.10;5.07;;;6.80;99.90;;;;;;5050580;28;20052;-86
2023/01/30 02:37:14;;;;;;;11.77;5.70;;;6.90;99.90;;;;;;5040612;28;20052;-87
2023/01/30 02:39:59;;;;;;;16.33;6.40;;;6.90;99.90;;;;;;5050806;28;20037;-86
2023/01/30 02:42:50;;;;;;;14.18;6.20;;;6.90;99.90;;;;;;5051446;28;20041;-86
2023/01/30 02:45:34;;;;;;;13.38;5.30;;;6.90;99.90;;;;;;5043853;28;20052;-87
2023/01/30 02:48:14;;;;;;;17.05;6.18;;;6.90;99.90;;;;;;5057757;28;20045;-86
2023/01/30 02:50:49;;;;;;;20.63;7.57;;;6.90;99.90;;;;;;5047316;28;20049;-87
2023/01/30 02:53:15;;;;;;;15.25;5.30;;;6.90;99.90;;;;;;5040295;28;20391;-87
2023/01/30 02:55:41;;;;;;;21.50;6.30;;;6.90;99.90;;;;;;5023161;28;20035;-86
2023/01/30 02:58:08;;;;;;;16.55;6.28;;;6.90;99.90;;;;;;5042740;28;20500;-87
2023/01/30 03:01:11;;;;;;;18.42;5.43;;;7.00;99.90;;;;;;5044733;28;20553;-87
2023/01/30 03:03:39;;;;;;;18.63;5.65;;;7.00;99.90;;;;;;5051216;28;20041;-86
2023/01/30 03:06:23;;;;;;;17.35;4.97;;;7.00;99.90;;;;;;5044678;28;20046;-86
2023/01/30 03:09:10;;;;;;;18.38;5.35;;;7.00;99.90;;;;;;5041394;28;20040;-86
2023/01/30 03:12:02;;;;;;;17.77;5.15;;;7.00;99.90;;;;;;5049668;28;20087;-88
2023/01/30 03:14:37;;;;;;;16.73;5.68;;;7.10;99.90;;;;;;5061414;28;20044;-86
2023/01/30 03:17:05;;;;;;;18.90;7.22;;;7.10;99.90;;;;;;5042359;28;20499;-87
2023/01/30 03:19:31;;;;;;;21.13;4.57;;;7.10;99.90;;;;;;5032857;28;20075;-87
2023/01/30 03:21:56;;;;;;;24.40;6.22;;;7.10;99.90;;;;;;5049243;28;20479;-86
2023/01/30 03:24:22;;;;;;;15.80;5.15;;;7.20;99.90;;;;;;5048409;28;20087;-87
2023/01/30 03:26:58;;;;;;;20.30;5.40;;;7.20;99.90;;;;;;5044080;28;20064;-86
2023/01/30 03:29:23;;;;;;;19.55;4.05;;;7.20;99.90;;;;;;5050557;28;20098;-87
2023/01/30 03:31:49;;;;;;;16.83;4.63;;;7.20;99.90;;;;;;5049476;28;20426;-87
2023/01/30 03:34:15;;;;;;;20.40;4.05;;;7.10;99.90;;;;;;5042318;28;20541;-86
2023/01/30 03:36:40;;;;;;;17.42;4.82;;;7.20;99.90;;;;;;5037262;28;20084;-87
2023/01/30 03:39:07;;;;;;;22.05;4.57;;;7.20;99.90;;;;;;5044112;28;20376;-87
2023/01/30 03:41:33;;;;;;;23.25;4.88;;;7.20;99.90;;;;;;5044961;28;20037;-87
2023/01/30 03:43:58;;;;;;;21.25;3.95;;;7.20;99.90;;;;;;5042374;28;20083;-86
2023/01/30 03:46:24;;;;;;;15.93;3.85;;;7.20;99.90;;;;;;5048486;28;20450;-87
2023/01/30 03:48:49;;;;;;;16.98;3.97;;;7.10;99.90;;;;;;5038067;28;20087;-87
2023/01/30 03:51:15;;;;;;;16.67;4.90;;;7.10;99.90;;;;;;5040177;28;20044;-86
2023/01/30 03:53:41;;;;;;;16.85;3.22;;;7.10;99.90;;;;;;5054072;28;20041;-87
2023/01/30 03:56:06;;;;;;;18.55;4.38;;;7.00;99.90;;;;;;5035074;28;20082;-87
2023/01/30 03:58:32;;;;;;;17.65;3.47;;;6.90;99.90;;;;;;5042053;28;20029;-86
2023/01/30 04:00:57;;;;;;;15.55;3.85;;;6.90;99.90;;;;;;5050423;28;20068;-86
2023/01/30 04:03:23;;;;;;;25.33;3.80;;;6.80;99.90;;;;;;5048318;28;20450;-86
2023/01/30 04:05:49;;;;;;;22.42;4.03;;;6.80;99.90;;;;;;5041256;28;20475;-86
2023/01/30 04:08:14;;;;;;;19.10;3.42;;;6.70;99.90;;;;;;5046321;28;20033;-86
2023/01/30 04:10:40;;;;;;;19.80;3.80;;;6.70;99.90;;;;;;5047882;28;20167;-85
2023/01/30 04:13:06;;;;;;;15.00;3.60;;;6.60;99.90;;;;;;5049121;28;20053;-86
2023/01/30 04:15:32;;;;;;;12.20;2.60;;;6.60;99.90;;;;;;5022439;28;20045;-86
2023/01/30 04:17:57;;;;;;;14.57;3.05;;;6.60;99.90;;;;;;5047450;28;20037;-86
2023/01/30 04:20:23;;;;;;;20.55;3.42;;;6.60;99.90;;;;;;5045669;28;20519;-85
2023/01/30 04:22:49;;;;;;;19.17;3.63;;;6.60;99.90;;;;;;5043310;28;20047;-86
2023/01/30 04:25:15;;;;;;;13.70;4.38;;;6.60;99.90;;;;;;5047798;28;20372;-86
2023/01/30 04:27:40;;;;;;;23.73;3.65;;;6.60;99.90;;;;;;5046542;28;20479;-85
2023/01/30 04:30:07;;;;;;;16.25;3.28;;;6.60;99.90;;;;;;5037979;28;20033;-85
2023/01/30 04:32:32;;;;;;;20.33;3.22;;;6.50;99.90;;;;;;5042022;28;20494;-85
2023/01/30 04:34:58;;;;;;;14.55;4.15;;;6.50;99.90;;;;;;5046269;28;20041;-86
2023/01/30 04:37:23;;;;;;;25.02;3.40;;;6.40;99.90;;;;;;5043470;28;20037;-86
2023/01/30 04:39:49;;;;;;;23.45;4.40;;;7.50;99.90;;;;;;5045542;28;20040;-85
2023/01/30 04:42:15;;;;;;;20.52;3.97;;;6.50;99.90;;;;;;5048793;28;20072;-85
2023/01/30 04:44:40;;;;;;;19.13;3.53;;;6.50;99.90;;;;;;5049012;28;21023;-85
2023/01/30 04:47:06;;;;;;;15.98;3.30;;;6.50;99.90;;;;;;5053246;28;20044;-85
2023/01/30 04:49:31;;;;;;;17.48;4.00;;;6.50;99.90;;;;;;5048981;28;20033;-85
2023/01/30 04:51:57;;;;;;;19.58;3.80;;;6.50;99.90;;;;;;5039022;28;20040;-85
2023/01/30 04:54:23;;;;;;;28.00;3.72;;;6.50;99.90;;;;;;5038169;28;20248;-85
2023/01/30 04:56:48;;;;;;;16.98;3.50;;;6.50;99.90;;;;;;5049259;28;20163;-85
2023/01/30 04:59:14;;;;;;;20.52;3.75;;;6.40;99.90;;;;;;5047029;28;20037;-86
2023/01/30 05:01:40;;;;;;;16.75;3.05;;;6.40;99.90;;;;;;5043119;28;20037;-85
2023/01/30 05:04:06;;;;;;;16.92;3.38;;;6.40;99.90;;;;;;5050230;28;20049;-85
2023/01/30 05:06:33;;;;;;;17.42;2.95;;;6.30;99.90;;;;;;5051383;28;20052;-85
2023/01/30 05:08:59;;;;;;;18.20;3.67;;;6.40;99.90;;;;;;5049817;28;20501;-85
2023/01/30 05:11:26;;;;;;;15.20;2.80;;;6.30;99.90;;;;;;5050698;28;20037;-85
2023/01/30 05:13:52;;;;;;;22.45;3.35;;;6.30;99.90;;;;;;5049400;28;20044;-85
2023/01/30 05:16:19;;;;;;;24.33;2.90;;;6.30;99.90;;;;;;5047575;28;20048;-85
2023/01/30 05:18:44;;;;;;;15.02;2.70;;;6.30;99.90;;;;;;5031643;28;20038;-84
2023/01/30 05:21:18;;;;;;;21.65;3.47;;;6.20;99.90;;;;;;5041872;28;20041;-85
2023/01/30 05:23:44;;;;;;;15.18;2.72;;;6.20;99.90;;;;;;5050488;28;20040;-85
2023/01/30 05:26:11;;;;;;;17.83;3.50;;;6.20;99.90;;;;;;5043395;28;20480;-86
2023/01/30 05:28:37;;;;;;;16.50;3.15;;;6.20;99.90;;;;;;5049590;28;20086;-85
2023/01/30 05:31:13;;;;;;;18.60;2.88;;;6.20;99.90;;;;;;5049078;28;20044;-85
2023/01/30 05:33:39;;;;;;;23.90;4.22;;;6.20;99.90;;;;;;5052189;28;20037;-85
2023/01/30 05:36:06;;;;;;;20.90;3.45;;;6.10;99.90;;;;;;5052629;28;20064;-85
2023/01/30 05:38:32;;;;;;;20.67;3.60;;;6.10;99.90;;;;;;5051136;28;20083;-85
2023/01/30 05:41:05;;;;;;;22.98;3.28;;;6.10;99.90;;;;;;5044675;28;20061;-85
2023/01/30 05:43:32;;;;;;;21.10;2.90;;;6.00;99.90;;;;;;5055360;28;20307;-85
2023/01/30 05:45:59;;;;;;;19.30;3.35;;;6.00;99.90;;;;;;5042801;28;20044;-85
2023/01/30 05:48:25;;;;;;;21.88;3.63;;;5.90;99.90;;;;;;5046117;28;20127;-84
2023/01/30 05:50:52;;;;;;;15.98;3.20;;;5.90;99.90;;;;;;5050873;28;20116;-84
2023/01/30 05:53:18;;;;;;;20.42;2.70;;;5.90;99.90;;;;;;5026099;28;20043;-84
2023/01/30 05:55:44;;;;;;;24.77;5.15;;;5.90;99.90;;;;;;5047628;28;20045;-85
2023/01/30 05:58:10;;;;;;;15.70;2.90;;;5.80;99.90;;;;;;5059457;28;20041;-84
2023/01/30 06:00:36;;;;;;;21.52;2.72;;;5.80;99.90;;;;;;5049376;28;20052;-85
2023/01/30 06:03:02;;;;;;;24.73;3.35;;;5.80;99.90;;;;;;5049761;28;20487;-85
2023/01/30 06:05:28;;;;;;;16.80;3.28;;;5.80;99.90;;;;;;5047683;28;20048;-84
2023/01/30 06:07:53;;;;;;;16.63;3.30;;;5.90;99.90;;;;;;5043377;28;20430;-85
2023/01/30 06:10:19;;;;;;;22.10;3.28;;;5.90;99.90;;;;;;5052543;28;20091;-85
2023/01/30 06:12:45;;;;;;;23.55;4.43;;;5.80;99.90;;;;;;5048950;28;20048;-85
2023/01/30 06:15:11;;;;;;;20.52;3.55;;;5.80;99.90;;;;;;5043220;28;20400;-84
2023/01/30 06:17:36;;;;;;;27.15;4.80;;;5.80;99.90;;;;;;5049821;28;20049;-84
2023/01/30 06:20:02;;;;;;;24.00;3.20;;;5.90;99.90;;;;;;5048006;28;20040;-84
2023/01/30 06:22:28;;;;;;;22.50;3.05;;;6.00;99.90;;;;;;5045876;28;20524;-84
2023/01/30 06:24:53;;;;;;;26.73;4.07;;;6.00;99.90;;;;;;5049100;28;20095;-84
2023/01/30 06:27:19;;;;;;;24.92;3.60;;;6.10;99.90;;;;;;5048415;28;20041;-84
2023/01/30 06:29:45;;;;;;;18.10;2.35;;;6.10;99.90;;;;;;5040807;28;20037;-83
2023/01/30 06:32:10;;;;;;;27.83;4.50;;;6.20;99.90;;;;;;5047670;28;20507;-83
2023/01/30 06:34:36;;;;;;;20.98;3.50;;;6.10;99.90;;;;;;5045101;28;20029;-83
2023/01/30 06:37:01;;;;;;;26.05;4.07;;;6.10;99.90;;;;;;5031257;28;20040;-83
2023/01/30 06:39:27;;;;;;;18.35;3.67;;;6.10;99.90;;;;;;5045116;28;20041;-84
2023/01/30 06:41:53;;;;;;;19.25;2.97;;;6.10;99.90;;;;;;5035841;28;20041;-83
2023/01/30 06:44:18;;;;;;;25.48;3.45;;;6.10;99.90;;;;;;5046654;28;20380;-83
2023/01/30 06:46:44;;;;;;;19.70;2.92;;;6.10;99.90;;;;;;5050813;28;20037;-83
2023/01/30 06:49:10;;;;;;;17.73;2.30;;;6.10;99.90;;;;;;5045644;28;20483;-83
2023/01/30 06:51:36;;;;;;;27.15;3.42;;;6.10;99.90;;;;;;5038540;28;20032;-84
2023/01/30 06:54:01;;;;;;;23.73;2.70;;;6.10;99.90;;;;;;5045302;28;20462;-84
2023/01/30 06:56:27;;;;;;;21.67;3.17;;;6.10;99.90;;;;;;5041518;28;20106;-84
2023/01/30 06:58:53;;;;;;;16.17;2.78;;;6.10;99.90;;;;;;5045050;28;20076;-86
2023/01/30 07:01:20;;;;;;;23.17;4.00;;;6.20;99.90;;;;;;5048764;28;20300;-83
2023/01/30 07:03:46;;;;;;;16.90;2.67;;;6.20;99.90;;;;;;5049253;28;20037;-84
2023/01/30 07:06:11;;;;;;;23.33;4.03;;;6.20;99.90;;;;;;5047420;28;20033;-85
2023/01/30 07:08:37;;;;;;;22.23;3.30;;;6.20;99.90;;;;;;5049312;28;20040;-84
2023/01/30 07:11:04;;;;;;;23.35;2.85;;;6.20;99.90;;;;;;5055258;28;20033;-86
2023/01/30 07:13:29;;;;;;;22.48;3.22;;;6.20;99.90;;;;;;5049094;28;20074;-86
2023/01/30 07:15:55;;;;;;;19.67;4.22;;;6.30;99.90;;;;;;5025538;28;20064;-84
2023/01/30 07:18:21;;;;;;;28.83;4.25;;;6.30;99.90;;;;;;5022704;28;20120;-84
2023/01/30 07:20:48;;;;;;;21.55;3.80;;;6.30;99.90;;;;;;5047285;28;20773;-84
2023/01/30 07:23:13;;;;;;;40.83;5.00;;;6.30;99.90;;;;;;5041480;28;20086;-84
2023/01/30 07:25:39;;;;;;;21.45;4.07;;;6.30;99.90;;;;;;5044240;28;20060;-82
2023/01/30 07:28:05;;;;;;;29.73;3.95;;;6.30;99.90;;;;;;5039397;28;20084;-82
2023/01/30 07:30:34;;;;;;;23.55;3.35;;;6.30;99.90;;;;;;5041643;28;20119;-83
2023/01/30 07:33:01;;;;;;;24.38;3.42;;;6.30;99.90;;;;;;5038824;28;20459;-83
2023/01/30 07:35:29;;;;;;;30.83;4.90;;;6.30;99.90;;;;;;5050039;28;20064;-84
2023/01/30 07:37:55;;;;;;;23.20;3.53;;;6.40;99.90;;;;;;5044390;28;20076;-84
2023/01/30 07:40:22;;;;;;;21.02;3.25;;;6.40;99.90;;;;;;5043531;28;20087;-83
2023/01/30 07:42:56;;;;;;;16.63;2.97;;;6.40;99.90;;;;;;5043442;28;20080;-82
2023/01/30 07:45:22;;;;;;;33.30;4.78;;;6.40;99.90;;;;;;5045652;28;20041;-83
2023/01/30 07:47:47;;;;;;;16.65;3.08;;;6.70;99.90;;;;;;5036822;28;20041;-83
2023/01/30 07:50:13;;;;;;;28.33;3.97;;;6.40;99.90;;;;;;5049629;28;20111;-83
2023/01/30 07:52:39;;;;;;;21.88;3.17;;;6.30;99.90;;;;;;5047285;28;20521;-83
2023/01/30 07:55:05;;;;;;;24.10;3.22;;;6.30;99.90;;;;;;5046139;28;20040;-81
2023/01/30 07:57:30;;;;;;;23.17;3.00;;;6.30;99.90;;;;;;5044977;28;20041;-82
2023/01/30 07:59:56;;;;;;;18.23;3.35;;;6.30;99.90;;;;;;5049118;28;20056;-82
2023/01/30 08:02:22;;;;;;;22.05;3.22;;;6.30;99.90;;;;;;5047626;28;20048;-82
2023/01/30 08:04:47;;;;;;;21.95;4.38;;;6.40;99.90;;;;;;5048526;28;20051;-82
2023/01/30 08:07:13;;;;;;;25.85;4.25;;;6.40;99.90;;;;;;5048181;28;20179;-81
2023/01/30 08:09:38;;;;;;;17.50;3.47;;;6.40;99.90;;;;;;5039219;28;20030;-82
2023/01/30 08:12:04;;;;;;;25.38;3.20;;;6.40;99.90;;;;;;5048549;28;20069;-82
2023/01/30 08:14:30;;;;;;;21.17;3.65;;;6.40;99.90;;;;;;5049540;28;20035;-82
2023/01/30 08:16:56;;;;;;;17.50;4.20;;;6.40;99.90;;;;;;5056032;28;20045;-82
2023/01/30 08:19:21;;;;;;;28.50;3.88;;;6.40;99.90;;;;;;5038818;28;20065;-83
2023/01/30 08:21:47;;;;;;;16.95;2.80;;;6.50;99.90;;;;;;5046135;28;20041;-82
2023/01/30 08:24:13;;;;;;;18.63;3.40;;;6.50;99.90;;;;;;5048855;28;20479;-83
2023/01/30 08:26:38;;;;;;;21.15;2.95;;;6.50;99.90;;;;;;5038457;28;20049;-82
2023/01/30 08:29:04;;;;;;;18.70;2.67;;;6.50;99.90;;;;;;5025548;28;20042;-82
2023/01/30 08:31:30;;;;;;;23.10;4.05;;;6.50;99.90;;;;;;5044244;28;20052;-82
2023/01/30 08:33:55;;;;;;;23.77;4.55;;;6.50;99.90;;;;;;5044021;28;20052;-85
2023/01/30 08:36:21;;;;;;;19.33;3.55;;;7.10;99.90;;;;;;5046021;28;20037;-84
2023/01/30 08:38:46;;;;;;;25.92;3.13;;;6.50;99.90;;;;;;5045684;28;20037;-82
2023/01/30 08:41:12;;;;;;;20.52;3.28;;;6.60;99.90;;;;;;5045449;28;20361;-83
2023/01/30 08:43:38;;;;;;;22.85;3.28;;;6.60;99.90;;;;;;5043069;28;20102;-82
2023/01/30 08:46:04;;;;;;;22.98;3.75;;;6.60;99.90;;;;;;5039742;28;20052;-82
2023/01/30 08:48:29;;;;;;;18.88;3.63;;;6.60;99.90;;;;;;5044971;28;20031;-82
2023/01/30 08:50:55;;;;;;;18.15;3.10;;;6.60;99.90;;;;;;5048520;28;20484;-83
2023/01/30 08:53:22;;;;;;;29.98;3.35;;;6.60;99.90;;;;;;5046489;28;20484;-82
2023/01/30 08:55:51;;;;;;;22.35;3.70;;;6.60;99.90;;;;;;5053674;28;20039;-83
2023/01/30 08:58:18;;;;;;;22.05;3.30;;;6.70;99.90;;;;;;5047964;28;20245;-82
2023/01/30 09:00:45;;;;;;;20.05;2.85;;;6.70;99.90;;;;;;5028344;28;20045;-83
2023/01/30 09:03:12;;;;;;;29.60;5.35;;;6.70;99.90;;;;;;5035029;28;20052;-82
2023/01/30 09:05:38;;;;;;;26.38;4.20;;;6.70;99.90;;;;;;5038521;28;20167;-83
2023/01/30 09:08:03;;;;;;;24.45;4.32;;;6.70;99.90;;;;;;5037298;28;20627;-82
2023/01/30 09:10:29;;;;;;;23.60;4.43;;;6.80;99.90;;;;;;5048834;28;20041;-83
2023/01/30 09:12:55;;;;;;;21.55;3.17;;;6.80;99.90;;;;;;5045614;28;20057;-83
2023/01/30 09:15:21;;;;;;;21.38;3.60;;;6.80;99.90;;;;;;5046243;28;20036;-83
2023/01/30 09:17:46;;;;;;;23.10;3.03;;;6.90;99.90;;;;;;5043227;28;20044;-82
2023/01/30 09:20:12;;;;;;;20.50;2.97;;;6.90;99.90;;;;;;5023753;28;20056;-83
2023/01/30 09:22:38;;;;;;;24.58;4.18;;;6.90;99.90;;;;;;5042599;28;20087;-82
2023/01/30 09:25:05;;;;;;;19.42;3.67;;;6.90;99.90;;;;;;5042814;28;20053;-83
2023/01/30 09:27:30;;;;;;;29.60;4.75;;;7.00;99.90;;;;;;5049593;28;20096;-82
2023/01/30 09:29:56;;;;;;;21.60;3.15;;;7.00;99.90;;;;;;5049588;28;20434;-82
2023/01/30 09:32:22;;;;;;;15.93;3.50;;;7.00;99.90;;;;;;5051728;28;20033;-81
2023/01/30 09:34:47;;;;;;;23.30;3.17;;;7.00;99.90;;;;;;5053193;28;20025;-83
2023/01/30 09:37:13;;;;;;;26.63;4.97;;;7.00;99.90;;;;;;5045790;28;20059;-82
2023/01/30 09:39:39;;;;;;;20.55;3.40;;;7.00;99.90;;;;;;5041830;28;20408;-83
2023/01/30 09:42:04;;;;;;;19.70;3.40;;;7.10;99.90;;;;;;5041331;28;20496;-82
2023/01/30 09:45:08;;;;;;;20.20;3.28;;;7.20;99.90;;;;;;5046946;28;20047;-83
2023/01/30 09:48:01;;;;;;;19.40;3.50;;;7.10;99.90;;;;;;5048956;28;20037;-83
2023/01/30 09:50:49;;;;;;;29.17;3.75;;;7.00;99.90;;;;;;5048063;28;20102;-83
2023/01/30 09:53:17;;;;;;;25.60;3.53;;;7.00;99.90;;;;;;5061144;28;20037;-82
2023/01/30 09:55:45;;;;;;;17.67;2.85;;;6.90;99.90;;;;;;5050366;28;20371;-82
2023/01/30 09:58:52;;;;;;;28.52;3.88;;;6.80;99.90;;;;;;5047860;28;20072;-83
2023/01/30 10:01:38;;;;;;;16.33;4.50;;;6.70;99.90;;;;;;5043536;28;20120;-83
2023/01/30 10:04:17;;;;;;;28.52;6.07;;;6.60;99.90;;;;;;5047823;28;20083;-83
2023/01/30 10:06:58;;;;;;;22.63;3.65;;;6.50;99.90;;;;;;5015425;28;20048;-83
2023/01/30 10:09:41;;;;;;;21.42;3.95;;;6.50;99.90;;;;;;5044843;28;20041;-83
2023/01/30 10:12:42;;;;;;;21.35;3.35;;;6.60;99.90;;;;;;5051621;28;20021;-83
2023/01/30 10:15:37;;;;;;;22.83;4.53;;;6.60;99.90;;;;;;5045946;28;20049;-83
2023/01/30 10:18:27;;;;;;;17.83;3.70;;;6.70;99.90;;;;;;4974162;28;20680;-83
2023/01/30 10:21:10;;;;;;;22.35;4.05;;;6.80;99.90;;;;;;4974050;28;20077;-83
2023/01/30 10:23:43;;;;;;;20.52;4.18;;;6.80;99.90;;;;;;4980207;28;20093;-83
2023/01/30 10:26:18;;;;;;;21.17;4.05;;;6.90;99.90;;;;;;4973761;28;20157;-83
2023/01/30 10:29:18;;;;;;;25.85;4.20;;;7.00;99.90;;;;;;4982892;28;20054;-83
2023/01/30 10:31:48;;;;;;;26.85;4.05;;;7.10;99.90;;;;;;4972985;28;20057;-83
2023/01/30 10:34:21;;;;;;;22.27;3.22;;;7.20;99.90;;;;;;4974228;28;20046;-83
2023/01/30 10:37:09;;;;;;;30.10;4.00;;;7.20;99.90;;;;;;4990162;28;20050;-83
2023/01/30 10:39:35;;;;;;;19.63;4.28;;;7.60;99.90;;;;;;4979466;28;20041;-83
2023/01/30 10:42:18;;;;;;;23.63;3.58;;;7.10;99.90;;;;;;4979110;28;20047;-83
2023/01/30 10:44:46;;;;;;;9.90;1.40;;;6.90;99.90;;;;;;4978431;28;20053;-81
2023/01/30 10:47:40;;;;;;;4.78;0.50;;;6.70;99.90;;;;;;4972388;28;20085;-82
2023/01/30 10:50:15;;;;;;;2.63;0.57;;;6.50;99.90;;;;;;4964876;28;20064;-82
2023/01/30 10:52:49;;;;;;;7.38;0.60;;;6.20;99.90;;;;;;4969882;28;20042;-83
2023/01/30 10:55:35;;;;;;;8.07;1.43;;;6.00;99.90;;;;;;4997902;28;20332;-82
2023/01/30 10:58:35;;;;;;;9.43;1.50;;;5.90;99.90;;;;;;5043008;28;20331;-82
2023/01/30 11:01:10;;;;;;;7.50;1.00;;;5.90;99.90;;;;;;5046894;28;20044;-83
2023/01/30 11:03:45;;;;;;;13.68;1.70;;;6.00;99.90;;;;;;5050684;28;20037;-83
2023/01/30 11:06:17;;;;;;;10.88;1.50;;;6.70;99.90;;;;;;5047673;28;20522;-83
2023/01/30 11:08:43;;;;;;;10.07;1.77;;;6.30;99.90;;;;;;5048189;28;20037;-83
2023/01/30 11:11:21;;;;;;;11.63;2.20;;;6.50;99.90;;;;;;5048391;28;20391;-83
2023/01/30 11:13:47;;;;;;;10.35;1.50;;;6.60;99.90;;;;;;5023435;28;20107;-83
2023/01/30 11:16:14;;;;;;;11.35;2.15;;;6.70;99.90;;;;;;5026646;28;20037;-83
2023/01/30 11:18:49;;;;;;;11.63;2.03;;;6.80;99.90;;;;;;5041516;28;20087;-83
2023/01/30 11:21:28;;;;;;;9.00;1.65;;;6.90;99.90;;;;;;5047679;28;20143;-83
2023/01/30 11:23:54;;;;;;;11.10;2.22;;;7.00;99.90;;;;;;5043673;28;20079;-85
2023/01/30 11:26:32;;;;;;;10.73;1.75;;;7.10;99.90;;;;;;5040357;28;20077;-85
2023/01/30 11:28:58;;;;;;;15.00;2.58;;;7.70;99.90;;;;;;5044904;28;20048;-85
2023/01/30 11:31:25;;;;;;;15.52;2.72;;;7.90;99.90;;;;;;5042676;28;20041;-84
2023/01/30 11:34:04;;;;;;;13.32;1.63;;;7.40;99.90;;;;;;5052021;28;20124;-84
2023/01/30 11:36:32;;;;;;;14.70;2.40;;;7.50;99.90;;;;;;5026252;28;20038;-84
2023/01/30 11:39:14;;;;;;;20.80;2.92;;;7.50;99.90;;;;;;5040355;28;20455;-85
2023/01/30 11:42:00;;;;;;;12.30;1.67;;;8.00;99.90;;;;;;5049811;28;20041;-85
2023/01/30 11:44:34;;;;;;;13.60;2.33;;;7.50;99.90;;;;;;5042048;28;20041;-84
2023/01/30 11:47:09;;;;;;;13.20;2.15;;;7.40;99.90;;;;;;5043978;28;20045;-84
2023/01/30 11:49:55;;;;;;;15.90;2.03;;;7.40;99.90;;;;;;5050805;28;20039;-84
2023/01/30 11:52:35;;;;;;;14.95;2.35;;;7.40;99.90;;;;;;5043522;28;20033;-83
2023/01/30 11:55:11;;;;;;;13.85;2.38;;;7.50;99.90;;;;;;5044657;28;20029;-83
2023/01/30 11:57:44;;;;;;;10.38;2.08;;;7.50;99.90;;;;;;5045130;28;20041;-83
2023/01/30 12:00:22;;;;;;;10.98;1.60;;;7.60;99.90;;;;;;5040510;28;20030;-83
2023/01/30 12:02:50;;;;;;;7.70;1.83;;;7.60;99.90;;;;;;5044927;28;20042;-83
2023/01/30 12:05:35;;;;;;;9.05;1.60;;;7.50;99.90;;;;;;5041050;28;20034;-82
2023/01/30 12:08:19;;;;;;;16.73;1.90;;;7.50;99.90;;;;;;5046972;28;20040;-83
2023/01/30 12:10:47;;;;;;;13.33;2.40;;;7.40;99.90;;;;;;5048104;28;20084;-82
2023/01/30 12:13:37;;;;;;;14.52;2.13;;;7.40;99.90;;;;;;5047470;28;20085;-82
2023/01/30 12:16:24;;;;;;;17.08;1.83;;;7.40;99.90;;;;;;5048941;28;20040;-82
2023/01/30 12:19:01;;;;;;;15.07;1.88;;;7.30;99.90;;;;;;5036859;28;20057;-82
2023/01/30 12:21:58;;;;;;;10.73;1.67;;;7.30;99.90;;;;;;5045133;28;20073;-83
2023/01/30 12:24:43;;;;;;;7.00;1.88;;;8.00;99.90;;;;;;5043746;28;20129;-83
2023/01/30 12:27:29;;;;;;;15.00;2.38;;;7.50;99.90;;;;;;5033441;28;20045;-82
2023/01/30 12:30:30;;;;;;;14.32;2.92;;;7.30;99.90;;;;;;5043949;28;20046;-82
2023/01/30 12:33:00;;;;;;;19.10;3.30;;;7.50;99.90;;;;;;5045338;28;20059;-82
2023/01/30 12:36:06;;;;;;;15.40;3.17;;;7.60;99.90;;;;;;5043141;28;20040;-82
2023/01/30 12:39:04;;;;;;;14.30;2.00;;;7.70;99.90;;;;;;5027013;28;20052;-81
2023/01/30 12:41:41;;;;;;;14.52;2.50;;;8.20;99.90;;;;;;5023184;28;20049;-82
2023/01/30 12:44:28;;;;;;;14.77;2.28;;;7.80;99.90;;;;;;5047412;28;20494;-82
2023/01/30 12:47:23;;;;;;;17.00;2.80;;;7.90;99.90;;;;;;5041213;28;20048;-83
2023/01/30 12:50:07;;;;;;;15.55;2.53;;;7.90;99.90;;;;;;5041205;28;20037;-82
2023/01/30 12:52:52;;;;;;;21.30;3.00;;;7.90;99.90;;;;;;5045464;28;20046;-83
2023/01/30 12:55:33;;;;;;;23.35;3.25;;;7.90;99.90;;;;;;5054052;28;20077;-83
2023/01/30 12:58:12;;;;;;;17.38;3.85;;;7.90;99.90;;;;;;5046829;28;20057;-85
2023/01/30 13:00:38;;;;;;;25.35;3.75;;;7.90;99.90;;;;;;5044658;28;20067;-82
2023/01/30 13:03:25;;;;;;;15.57;2.22;;;8.10;99.90;;;;;;5030321;28;20041;-86
2023/01/30 13:06:05;;;;;;;15.07;2.80;;;7.90;99.90;;;;;;5060860;28;20048;-85
2023/01/30 13:08:33;;;;;;;15.82;2.88;;;7.90;99.90;;;;;;5048455;28;20036;-85
2023/01/30 13:11:19;;;;;;;16.92;2.92;;;7.90;99.90;;;;;;5069136;28;20053;-82
2023/01/30 13:13:54;;;;;;;14.15;2.33;;;7.90;99.90;;;;;;5057190;28;20042;-84